VIV147 KLAX-MMMX
Flight info
| Callsign | VIV147 |
|---|---|
| Flight time | 3h 16m |
| Altitude | 35000 |
| Route | PNDAH2 TCATE DCT PPE UT10 ZCL UT130 DARAN DARAN3A |
| Aircraft | A320/M-SDE3FGHIRWY/LB1 |
Departure
| Time | 2026-05-08 00:54 |
|---|---|
| Airport | Los Angeles International Airport (KLAX) |
Arrival
| Time | 2026-05-08 04:11 |
|---|---|
| Airport | Mexico City Benito Juárez International Airport (MMMX) |
| Time | Latitude | Longitude | Altitude | Speed | Heading |
|---|---|---|---|---|---|
| 2026-05-08 00:26 | 33.94578 | -118.41622 | 93 ft | 0 kts | 83° |
| 2026-05-08 00:44 | 33.94577 | -118.41633 | 92 ft | 4 kts | 82° |
| 2026-05-08 00:45 | 33.94572 | -118.41664 | 94 ft | 4 kts | 72° |
| 2026-05-08 00:45 | 33.94561 | -118.41693 | 94 ft | 4 kts | 46° |
| 2026-05-08 00:45 | 33.94544 | -118.41704 | 91 ft | 1 kts | 353° |
| 2026-05-08 00:45 | 33.94543 | -118.41704 | 91 ft | 0 kts | 353° |
| 2026-05-08 00:47 | 33.94587 | -118.41711 | 94 ft | 13 kts | 353° |
| 2026-05-08 00:48 | 33.94652 | -118.41654 | 93 ft | 13 kts | 75° |
| 2026-05-08 00:48 | 33.94665 | -118.41540 | 95 ft | 14 kts | 82° |
| 2026-05-08 00:48 | 33.94682 | -118.41418 | 93 ft | 15 kts | 69° |
| 2026-05-08 00:48 | 33.94767 | -118.41383 | 94 ft | 13 kts | 36° |
| 2026-05-08 00:49 | 33.94793 | -118.41285 | 95 ft | 13 kts | 81° |
| 2026-05-08 00:49 | 33.94806 | -118.41158 | 96 ft | 17 kts | 83° |
| 2026-05-08 00:49 | 33.94820 | -118.41014 | 96 ft | 18 kts | 83° |
| 2026-05-08 00:49 | 33.94837 | -118.40861 | 94 ft | 19 kts | 83° |
| 2026-05-08 00:50 | 33.94853 | -118.40696 | 94 ft | 21 kts | 81° |
| 2026-05-08 00:50 | 33.94872 | -118.40520 | 94 ft | 22 kts | 83° |
| 2026-05-08 00:50 | 33.94891 | -118.40331 | 95 ft | 23 kts | 83° |
| 2026-05-08 00:50 | 33.94911 | -118.40132 | 96 ft | 25 kts | 82° |
| 2026-05-08 00:51 | 33.94937 | -118.39944 | 95 ft | 15 kts | 59° |
| 2026-05-08 00:51 | 33.94953 | -118.39925 | 97 ft | 0 kts | 31° |
| 2026-05-08 00:52 | 33.94954 | -118.39924 | 97 ft | 0 kts | 30° |
| 2026-05-08 00:52 | 33.94991 | -118.39913 | 95 ft | 11 kts | 10° |
| 2026-05-08 00:52 | 33.95040 | -118.39962 | 93 ft | 11 kts | 270° |
| 2026-05-08 00:53 | 33.95039 | -118.39974 | 94 ft | 0 kts | 263° |
| 2026-05-08 00:53 | 33.95039 | -118.39976 | 94 ft | 2 kts | 263° |
| 2026-05-08 00:53 | 33.95016 | -118.40206 | 98 ft | 60 kts | 263° |
| 2026-05-08 00:53 | 33.94940 | -118.40938 | 97 ft | 113 kts | 263° |
| 2026-05-08 00:54 | 33.94825 | -118.42054 | 99 ft | 154 kts | 262° |
| 2026-05-08 00:54 | 33.94654 | -118.43404 | 499 ft | 164 kts | 260° |
| 2026-05-08 00:54 | 33.94463 | -118.44772 | 1157 ft | 167 kts | 261° |
| 2026-05-08 00:54 | 33.94324 | -118.46183 | 1693 ft | 178 kts | 264° |
| 2026-05-08 00:55 | 33.94239 | -118.47764 | 1980 ft | 200 kts | 269° |
| 2026-05-08 00:55 | 33.94200 | -118.49515 | 2350 ft | 219 kts | 269° |
| 2026-05-08 00:55 | 33.94152 | -118.51444 | 2630 ft | 242 kts | 267° |
| 2026-05-08 00:55 | 33.94031 | -118.53526 | 3180 ft | 252 kts | 266° |
| 2026-05-08 00:56 | 33.93874 | -118.55652 | 3877 ft | 258 kts | 265° |
| 2026-05-08 00:56 | 33.93702 | -118.57807 | 4630 ft | 260 kts | 265° |
| 2026-05-08 00:56 | 33.93520 | -118.59990 | 4960 ft | 262 kts | 263° |
| 2026-05-08 00:56 | 33.92903 | -118.62058 | 5509 ft | 268 kts | 238° |
| 2026-05-08 00:57 | 33.91533 | -118.63599 | 6221 ft | 277 kts | 210° |
| 2026-05-08 00:57 | 33.89649 | -118.64168 | 6879 ft | 287 kts | 182° |
| 2026-05-08 00:57 | 33.87637 | -118.64061 | 7533 ft | 291 kts | 178° |
| 2026-05-08 00:57 | 33.85604 | -118.63875 | 8197 ft | 296 kts | 173° |
| 2026-05-08 00:58 | 33.83607 | -118.63193 | 8829 ft | 302 kts | 156° |
| 2026-05-08 00:58 | 33.81785 | -118.61901 | 9509 ft | 305 kts | 145° |
| 2026-05-08 00:58 | 33.80048 | -118.60470 | 10171 ft | 308 kts | 144° |
| 2026-05-08 00:58 | 33.78223 | -118.58978 | 10403 ft | 328 kts | 145° |
| 2026-05-08 00:59 | 33.76269 | -118.57389 | 10535 ft | 349 kts | 145° |
| 2026-05-08 00:59 | 33.74223 | -118.55726 | 10841 ft | 360 kts | 144° |
| 2026-05-08 00:59 | 33.72141 | -118.54028 | 11449 ft | 362 kts | 143° |
| 2026-05-08 00:59 | 33.70246 | -118.52057 | 12107 ft | 360 kts | 131° |
| 2026-05-08 01:00 | 33.68720 | -118.49684 | 12735 ft | 360 kts | 120° |
| 2026-05-08 01:00 | 33.67541 | -118.47039 | 13336 ft | 361 kts | 115° |
| 2026-05-08 01:00 | 33.66394 | -118.44345 | 13925 ft | 363 kts | 116° |
| 2026-05-08 01:00 | 33.65240 | -118.41644 | 14435 ft | 365 kts | 115° |
| 2026-05-08 01:01 | 33.64076 | -118.38928 | 14963 ft | 367 kts | 115° |
| 2026-05-08 01:01 | 33.62902 | -118.36196 | 15468 ft | 369 kts | 115° |
| 2026-05-08 01:01 | 33.61719 | -118.33448 | 15953 ft | 373 kts | 116° |
| 2026-05-08 01:01 | 33.60521 | -118.30674 | 16431 ft | 375 kts | 116° |
| 2026-05-08 01:02 | 33.59316 | -118.27887 | 16922 ft | 378 kts | 115° |
| 2026-05-08 01:02 | 33.58100 | -118.25079 | 17414 ft | 381 kts | 116° |
| 2026-05-08 01:02 | 33.56873 | -118.22246 | 17909 ft | 384 kts | 115° |
| 2026-05-08 01:02 | 33.55640 | -118.19393 | 18398 ft | 386 kts | 115° |
| 2026-05-08 01:03 | 33.54399 | -118.16526 | 18821 ft | 389 kts | 115° |
| 2026-05-08 01:03 | 33.53146 | -118.13635 | 19255 ft | 392 kts | 115° |
| 2026-05-08 01:03 | 33.51894 | -118.10724 | 19682 ft | 395 kts | 115° |
| 2026-05-08 01:03 | 33.50632 | -118.07788 | 20116 ft | 397 kts | 115° |
| 2026-05-08 01:04 | 33.49361 | -118.04833 | 20540 ft | 400 kts | 115° |
| 2026-05-08 01:04 | 33.48074 | -118.01860 | 20941 ft | 404 kts | 116° |
| 2026-05-08 01:04 | 33.46516 | -117.99046 | 21345 ft | 409 kts | 127° |
| 2026-05-08 01:04 | 33.44538 | -117.96571 | 21734 ft | 414 kts | 136° |
| 2026-05-08 01:05 | 33.42370 | -117.94279 | 22112 ft | 417 kts | 136° |
| 2026-05-08 01:05 | 33.40195 | -117.91978 | 22488 ft | 419 kts | 136° |
| 2026-05-08 01:05 | 33.38002 | -117.89656 | 22862 ft | 422 kts | 136° |
| 2026-05-08 01:05 | 33.35797 | -117.87318 | 23228 ft | 425 kts | 136° |
| 2026-05-08 01:06 | 33.33582 | -117.84970 | 23594 ft | 427 kts | 136° |
| 2026-05-08 01:06 | 33.31349 | -117.82604 | 23905 ft | 430 kts | 136° |
| 2026-05-08 01:06 | 33.29106 | -117.80227 | 24220 ft | 432 kts | 136° |
| 2026-05-08 01:06 | 33.26856 | -117.77842 | 24537 ft | 434 kts | 136° |
| 2026-05-08 01:07 | 33.24588 | -117.75440 | 24857 ft | 436 kts | 136° |
| 2026-05-08 01:07 | 33.22314 | -117.73036 | 25172 ft | 438 kts | 136° |
| 2026-05-08 01:07 | 33.20026 | -117.70624 | 25477 ft | 440 kts | 136° |
| 2026-05-08 01:07 | 33.17896 | -117.68071 | 25765 ft | 439 kts | 127° |
| 2026-05-08 01:08 | 33.16125 | -117.65114 | 26050 ft | 438 kts | 117° |
| 2026-05-08 01:08 | 33.14793 | -117.61854 | 26353 ft | 436 kts | 108° |
| 2026-05-08 01:08 | 33.13787 | -117.58440 | 26651 ft | 437 kts | 106° |
| 2026-05-08 01:08 | 33.12787 | -117.55004 | 26964 ft | 439 kts | 106° |
| 2026-05-08 01:09 | 33.11778 | -117.51559 | 27270 ft | 441 kts | 107° |
| 2026-05-08 01:09 | 33.10756 | -117.48095 | 27578 ft | 443 kts | 107° |
| 2026-05-08 01:09 | 33.09728 | -117.44626 | 27897 ft | 445 kts | 107° |
| 2026-05-08 01:09 | 33.08693 | -117.41144 | 28210 ft | 446 kts | 107° |
| 2026-05-08 01:10 | 33.07658 | -117.37661 | 28637 ft | 445 kts | 106° |
| 2026-05-08 01:10 | 33.06625 | -117.34190 | 29079 ft | 444 kts | 106° |
| 2026-05-08 01:10 | 33.05594 | -117.30732 | 29510 ft | 443 kts | 106° |
| 2026-05-08 01:10 | 33.04567 | -117.27275 | 29921 ft | 442 kts | 106° |
| 2026-05-08 01:11 | 33.03543 | -117.23827 | 30318 ft | 441 kts | 106° |
| 2026-05-08 01:11 | 33.02521 | -117.20389 | 30678 ft | 439 kts | 106° |
| 2026-05-08 01:11 | 33.01503 | -117.16962 | 31086 ft | 438 kts | 106° |
| 2026-05-08 01:11 | 33.00487 | -117.13549 | 31464 ft | 436 kts | 106° |
| 2026-05-08 01:12 | 32.99472 | -117.10150 | 31861 ft | 435 kts | 106° |
| 2026-05-08 01:12 | 32.98459 | -117.06764 | 32241 ft | 433 kts | 106° |
| 2026-05-08 01:12 | 32.97447 | -117.03384 | 32632 ft | 432 kts | 106° |
| 2026-05-08 01:12 | 32.96438 | -117.00022 | 33022 ft | 431 kts | 106° |
| 2026-05-08 01:13 | 32.95432 | -116.96669 | 33404 ft | 429 kts | 106° |
| 2026-05-08 01:13 | 32.94431 | -116.93327 | 33769 ft | 428 kts | 105° |
| 2026-05-08 01:13 | 32.93429 | -116.89992 | 34114 ft | 427 kts | 105° |
| 2026-05-08 01:13 | 32.92426 | -116.86663 | 34410 ft | 427 kts | 105° |
| 2026-05-08 01:14 | 32.91424 | -116.83344 | 34666 ft | 427 kts | 105° |
| 2026-05-08 01:14 | 32.90423 | -116.80023 | 34895 ft | 427 kts | 105° |
| 2026-05-08 01:14 | 32.89419 | -116.76693 | 35039 ft | 428 kts | 105° |
| 2026-05-08 01:15 | 32.87383 | -116.69940 | 35059 ft | 438 kts | 105° |
| 2026-05-08 01:15 | 32.85320 | -116.63135 | 35056 ft | 441 kts | 106° |
| 2026-05-08 01:16 | 32.83232 | -116.56274 | 35055 ft | 441 kts | 106° |
| 2026-05-08 01:16 | 32.81136 | -116.49414 | 35015 ft | 442 kts | 107° |
| 2026-05-08 01:17 | 32.78411 | -116.42814 | 35036 ft | 445 kts | 113° |
| 2026-05-08 01:17 | 32.75563 | -116.36274 | 35017 ft | 446 kts | 113° |
| 2026-05-08 01:18 | 32.72720 | -116.29717 | 35039 ft | 446 kts | 112° |
| 2026-05-08 01:18 | 32.70354 | -116.24271 | 35036 ft | 446 kts | 113° |
| 2026-05-08 01:19 | 32.67497 | -116.17722 | 35031 ft | 446 kts | 113° |
| 2026-05-08 01:19 | 32.64631 | -116.11190 | 35021 ft | 446 kts | 113° |
| 2026-05-08 01:20 | 32.61756 | -116.04653 | 35019 ft | 446 kts | 113° |
| 2026-05-08 01:20 | 32.58898 | -115.98120 | 35012 ft | 446 kts | 113° |
| 2026-05-08 01:21 | 32.56030 | -115.91589 | 35027 ft | 446 kts | 113° |
| 2026-05-08 01:21 | 32.53155 | -115.85063 | 35006 ft | 446 kts | 113° |
| 2026-05-08 01:22 | 32.50279 | -115.78547 | 34999 ft | 446 kts | 113° |
| 2026-05-08 01:22 | 32.47399 | -115.72034 | 34985 ft | 446 kts | 113° |
| 2026-05-08 01:23 | 32.44515 | -115.65523 | 34975 ft | 447 kts | 113° |
| 2026-05-08 01:23 | 32.41621 | -115.58995 | 34956 ft | 448 kts | 113° |
| 2026-05-08 01:24 | 32.38718 | -115.52482 | 34961 ft | 447 kts | 113° |
| 2026-05-08 01:24 | 32.35824 | -115.45973 | 34940 ft | 447 kts | 113° |
| 2026-05-08 01:25 | 32.32942 | -115.39508 | 34941 ft | 447 kts | 113° |
| 2026-05-08 01:25 | 32.30030 | -115.33006 | 34946 ft | 448 kts | 113° |
| 2026-05-08 01:26 | 32.27114 | -115.26500 | 34948 ft | 447 kts | 114° |
| 2026-05-08 01:26 | 32.24199 | -115.20006 | 34935 ft | 447 kts | 114° |
| 2026-05-08 01:27 | 32.21284 | -115.13517 | 34934 ft | 447 kts | 114° |
| 2026-05-08 01:27 | 32.18348 | -115.06993 | 34936 ft | 447 kts | 114° |
| 2026-05-08 01:28 | 32.15443 | -115.00554 | 35082 ft | 447 kts | 114° |
| 2026-05-08 01:28 | 32.13987 | -114.97328 | 34929 ft | 444 kts | 115° |
| 2026-05-08 01:28 | 32.12540 | -114.94123 | 34910 ft | 441 kts | 115° |
| 2026-05-08 01:29 | 32.09648 | -114.87732 | 34904 ft | 442 kts | 115° |
| 2026-05-08 01:29 | 32.06744 | -114.81318 | 34913 ft | 444 kts | 115° |
| 2026-05-08 01:30 | 32.03828 | -114.74896 | 34906 ft | 445 kts | 115° |
| 2026-05-08 01:30 | 32.00898 | -114.68465 | 34928 ft | 445 kts | 115° |
| 2026-05-08 01:31 | 31.97968 | -114.62022 | 34915 ft | 446 kts | 115° |
| 2026-05-08 01:31 | 31.95026 | -114.55584 | 34912 ft | 447 kts | 116° |
| 2026-05-08 01:32 | 31.92071 | -114.49132 | 34895 ft | 448 kts | 117° |
| 2026-05-08 01:32 | 31.89107 | -114.42668 | 34896 ft | 449 kts | 117° |
| 2026-05-08 01:33 | 31.86137 | -114.36194 | 34884 ft | 450 kts | 117° |
| 2026-05-08 01:33 | 31.83161 | -114.29725 | 34892 ft | 450 kts | 117° |
| 2026-05-08 01:34 | 31.80188 | -114.23262 | 34900 ft | 449 kts | 117° |
| 2026-05-08 01:34 | 31.77224 | -114.16834 | 34876 ft | 451 kts | 119° |
| 2026-05-08 01:35 | 31.74226 | -114.10348 | 34873 ft | 453 kts | 120° |
| 2026-05-08 01:35 | 31.71214 | -114.03846 | 34879 ft | 454 kts | 120° |
| 2026-05-08 01:36 | 31.68193 | -113.97328 | 34893 ft | 455 kts | 120° |
| 2026-05-08 01:36 | 31.65169 | -113.90807 | 34908 ft | 455 kts | 120° |
| 2026-05-08 01:37 | 31.62136 | -113.84296 | 34922 ft | 455 kts | 121° |
| 2026-05-08 01:37 | 31.59093 | -113.77774 | 34912 ft | 456 kts | 122° |
| 2026-05-08 01:38 | 31.56041 | -113.71233 | 34905 ft | 457 kts | 122° |
| 2026-05-08 01:38 | 31.52978 | -113.64698 | 34916 ft | 458 kts | 122° |
| 2026-05-08 01:39 | 31.49903 | -113.58149 | 34935 ft | 458 kts | 122° |
| 2026-05-08 01:39 | 31.46835 | -113.51611 | 34940 ft | 458 kts | 122° |
| 2026-05-08 01:40 | 31.43785 | -113.45115 | 34939 ft | 458 kts | 123° |
| 2026-05-08 01:40 | 31.40705 | -113.38576 | 34953 ft | 459 kts | 124° |
| 2026-05-08 01:41 | 31.37613 | -113.32041 | 34959 ft | 459 kts | 125° |
| 2026-05-08 01:41 | 31.33883 | -113.26102 | 34965 ft | 451 kts | 135° |
| 2026-05-08 01:42 | 31.29897 | -113.20429 | 34935 ft | 451 kts | 135° |
| 2026-05-08 01:42 | 31.25913 | -113.14751 | 34938 ft | 452 kts | 135° |
| 2026-05-08 01:43 | 31.21927 | -113.09086 | 34920 ft | 452 kts | 136° |
| 2026-05-08 01:43 | 31.17931 | -113.03422 | 34929 ft | 452 kts | 136° |
| 2026-05-08 01:44 | 31.13930 | -112.97759 | 34939 ft | 452 kts | 136° |
| 2026-05-08 01:44 | 31.09929 | -112.92104 | 34940 ft | 452 kts | 136° |
| 2026-05-08 01:45 | 31.05949 | -112.86496 | 34948 ft | 452 kts | 136° |
| 2026-05-08 01:45 | 31.01938 | -112.80860 | 34932 ft | 452 kts | 137° |
| 2026-05-08 01:46 | 30.97923 | -112.75210 | 34917 ft | 453 kts | 138° |
| 2026-05-08 01:46 | 30.93905 | -112.69551 | 34920 ft | 454 kts | 138° |
| 2026-05-08 01:47 | 30.89874 | -112.63889 | 34930 ft | 454 kts | 138° |
| 2026-05-08 01:47 | 30.85835 | -112.58226 | 34931 ft | 455 kts | 138° |
| 2026-05-08 01:48 | 30.79763 | -112.49737 | 34924 ft | 456 kts | 139° |
| 2026-05-08 01:48 | 30.75701 | -112.44074 | 34904 ft | 456 kts | 140° |
| 2026-05-08 01:49 | 30.71638 | -112.38400 | 34919 ft | 457 kts | 140° |
| 2026-05-08 01:49 | 30.67567 | -112.32727 | 34933 ft | 457 kts | 140° |
| 2026-05-08 01:50 | 30.63491 | -112.27064 | 34905 ft | 457 kts | 140° |
| 2026-05-08 01:50 | 30.59409 | -112.21406 | 34922 ft | 457 kts | 141° |
| 2026-05-08 01:51 | 30.55346 | -112.15775 | 34917 ft | 458 kts | 140° |
| 2026-05-08 01:51 | 30.51250 | -112.10108 | 34903 ft | 458 kts | 141° |
| 2026-05-08 01:52 | 30.47146 | -112.04449 | 34913 ft | 459 kts | 141° |
| 2026-05-08 01:52 | 30.43040 | -111.98778 | 34920 ft | 459 kts | 141° |
| 2026-05-08 01:53 | 30.38925 | -111.93105 | 34902 ft | 461 kts | 141° |
| 2026-05-08 01:53 | 30.34794 | -111.87427 | 34912 ft | 461 kts | 141° |
| 2026-05-08 01:54 | 30.30660 | -111.81739 | 34919 ft | 461 kts | 141° |
| 2026-05-08 01:54 | 30.26529 | -111.76064 | 34902 ft | 461 kts | 142° |
| 2026-05-08 01:55 | 30.22385 | -111.70387 | 34907 ft | 462 kts | 141° |
| 2026-05-08 01:55 | 30.18240 | -111.64713 | 34896 ft | 462 kts | 141° |
| 2026-05-08 01:56 | 30.14081 | -111.59031 | 34906 ft | 462 kts | 142° |
| 2026-05-08 01:56 | 30.09925 | -111.53365 | 34906 ft | 463 kts | 142° |
| 2026-05-08 01:57 | 30.05787 | -111.47730 | 34915 ft | 463 kts | 142° |
| 2026-05-08 01:57 | 30.01620 | -111.42065 | 34928 ft | 463 kts | 142° |
| 2026-05-08 01:58 | 29.97450 | -111.36407 | 34884 ft | 463 kts | 141° |
| 2026-05-08 01:58 | 29.93276 | -111.30742 | 34902 ft | 464 kts | 141° |
| 2026-05-08 01:59 | 29.89095 | -111.25075 | 34902 ft | 464 kts | 142° |
| 2026-05-08 01:59 | 29.84905 | -111.19409 | 34914 ft | 465 kts | 142° |
| 2026-05-08 02:00 | 29.80710 | -111.13750 | 34900 ft | 465 kts | 142° |
| 2026-05-08 02:00 | 29.76517 | -111.08087 | 34885 ft | 464 kts | 142° |
| 2026-05-08 02:01 | 29.72322 | -111.02432 | 34896 ft | 464 kts | 142° |
| 2026-05-08 02:01 | 29.68122 | -110.96787 | 34913 ft | 465 kts | 142° |
| 2026-05-08 02:02 | 29.63921 | -110.91147 | 34917 ft | 465 kts | 142° |
| 2026-05-08 02:02 | 29.59717 | -110.85499 | 34916 ft | 465 kts | 142° |
| 2026-05-08 02:03 | 29.55512 | -110.79864 | 34865 ft | 465 kts | 142° |
| 2026-05-08 02:03 | 29.51300 | -110.74235 | 34880 ft | 465 kts | 142° |
| 2026-05-08 02:04 | 29.47793 | -110.69554 | 34889 ft | 465 kts | 142° |
| 2026-05-08 02:04 | 29.43574 | -110.63933 | 34901 ft | 465 kts | 142° |
| 2026-05-08 02:05 | 29.39356 | -110.58308 | 34910 ft | 465 kts | 142° |
| 2026-05-08 02:05 | 29.35134 | -110.52684 | 34916 ft | 465 kts | 142° |
| 2026-05-08 02:06 | 29.30910 | -110.47071 | 34881 ft | 465 kts | 142° |
| 2026-05-08 02:06 | 29.26716 | -110.41499 | 34903 ft | 465 kts | 142° |
| 2026-05-08 02:07 | 29.22494 | -110.35897 | 34926 ft | 464 kts | 142° |
| 2026-05-08 02:07 | 29.18264 | -110.30297 | 34931 ft | 464 kts | 142° |
| 2026-05-08 02:08 | 29.14039 | -110.24708 | 34942 ft | 464 kts | 142° |
| 2026-05-08 02:08 | 29.09809 | -110.19123 | 34944 ft | 464 kts | 143° |
| 2026-05-08 02:09 | 29.05585 | -110.13546 | 34931 ft | 464 kts | 142° |
| 2026-05-08 02:09 | 29.01357 | -110.07976 | 34939 ft | 464 kts | 143° |
| 2026-05-08 02:10 | 28.97121 | -110.02417 | 34943 ft | 463 kts | 143° |
| 2026-05-08 02:10 | 28.92891 | -109.96860 | 34946 ft | 463 kts | 143° |
| 2026-05-08 02:11 | 28.88663 | -109.91318 | 34950 ft | 463 kts | 143° |
| 2026-05-08 02:11 | 28.84429 | -109.85780 | 34924 ft | 463 kts | 143° |
| 2026-05-08 02:12 | 28.80200 | -109.80249 | 34937 ft | 463 kts | 143° |
| 2026-05-08 02:12 | 28.75987 | -109.74736 | 34937 ft | 462 kts | 143° |
| 2026-05-08 02:13 | 28.71779 | -109.69237 | 34940 ft | 462 kts | 141° |
| 2026-05-08 02:13 | 28.67550 | -109.63729 | 34941 ft | 462 kts | 143° |
| 2026-05-08 02:14 | 28.63323 | -109.58232 | 34921 ft | 461 kts | 143° |
| 2026-05-08 02:14 | 28.59094 | -109.52739 | 34929 ft | 461 kts | 143° |
| 2026-05-08 02:15 | 28.54871 | -109.47253 | 34933 ft | 461 kts | 143° |
| 2026-05-08 02:15 | 28.50635 | -109.41758 | 34917 ft | 461 kts | 143° |
| 2026-05-08 02:16 | 28.46407 | -109.36292 | 34934 ft | 461 kts | 143° |
| 2026-05-08 02:16 | 28.42169 | -109.30820 | 34933 ft | 461 kts | 143° |
| 2026-05-08 02:17 | 28.37918 | -109.25340 | 34922 ft | 462 kts | 143° |
| 2026-05-08 02:17 | 28.33676 | -109.19869 | 34919 ft | 462 kts | 143° |
| 2026-05-08 02:18 | 28.29431 | -109.14396 | 34926 ft | 462 kts | 143° |
| 2026-05-08 02:18 | 28.25186 | -109.08937 | 34931 ft | 462 kts | 143° |
| 2026-05-08 02:19 | 28.20952 | -109.03524 | 34930 ft | 462 kts | 143° |
| 2026-05-08 02:19 | 28.16687 | -108.98078 | 34905 ft | 462 kts | 143° |
| 2026-05-08 02:20 | 28.12429 | -108.92631 | 34898 ft | 461 kts | 143° |
| 2026-05-08 02:20 | 28.08176 | -108.87197 | 34897 ft | 461 kts | 143° |
| 2026-05-08 02:21 | 28.03924 | -108.81776 | 34900 ft | 461 kts | 143° |
| 2026-05-08 02:21 | 27.99662 | -108.76346 | 34878 ft | 461 kts | 143° |
| 2026-05-08 02:22 | 27.95393 | -108.70918 | 34879 ft | 462 kts | 143° |
| 2026-05-08 02:22 | 27.91115 | -108.65488 | 34856 ft | 462 kts | 143° |
| 2026-05-08 02:23 | 27.86842 | -108.60082 | 34888 ft | 462 kts | 143° |
| 2026-05-08 02:23 | 27.84700 | -108.57366 | 35035 ft | 462 kts | 143° |
| 2026-05-08 02:23 | 27.82563 | -108.54659 | 35035 ft | 462 kts | 143° |
| 2026-05-08 02:24 | 27.78292 | -108.49243 | 35050 ft | 462 kts | 143° |
| 2026-05-08 02:24 | 27.74019 | -108.43825 | 35045 ft | 462 kts | 143° |
| 2026-05-08 02:25 | 27.69726 | -108.38406 | 35037 ft | 464 kts | 144° |
| 2026-05-08 02:25 | 27.65437 | -108.32996 | 35049 ft | 464 kts | 143° |
| 2026-05-08 02:26 | 27.61125 | -108.27554 | 35050 ft | 464 kts | 143° |
| 2026-05-08 02:26 | 27.56823 | -108.22135 | 35042 ft | 464 kts | 143° |
| 2026-05-08 02:27 | 27.52512 | -108.16721 | 35055 ft | 465 kts | 143° |
| 2026-05-08 02:27 | 27.48185 | -108.11278 | 35071 ft | 465 kts | 143° |
| 2026-05-08 02:28 | 27.43879 | -108.05863 | 35041 ft | 464 kts | 143° |
| 2026-05-08 02:28 | 27.39587 | -108.00494 | 35049 ft | 464 kts | 144° |
| 2026-05-08 02:29 | 27.35266 | -107.95103 | 35043 ft | 463 kts | 144° |
| 2026-05-08 02:29 | 27.30959 | -107.89710 | 35042 ft | 463 kts | 144° |
| 2026-05-08 02:30 | 27.26666 | -107.84346 | 35048 ft | 463 kts | 144° |
| 2026-05-08 02:30 | 27.22353 | -107.78976 | 35036 ft | 463 kts | 144° |
| 2026-05-08 02:31 | 27.18027 | -107.73584 | 34984 ft | 464 kts | 143° |
| 2026-05-08 02:31 | 27.13714 | -107.68219 | 34972 ft | 463 kts | 143° |
| 2026-05-08 02:32 | 27.09379 | -107.62839 | 34975 ft | 463 kts | 143° |
| 2026-05-08 02:32 | 27.05058 | -107.57473 | 34982 ft | 463 kts | 143° |
| 2026-05-08 02:33 | 27.00737 | -107.52126 | 34982 ft | 463 kts | 143° |
| 2026-05-08 02:33 | 26.96404 | -107.46775 | 34989 ft | 463 kts | 143° |
| 2026-05-08 02:34 | 26.92075 | -107.41425 | 34977 ft | 463 kts | 143° |
| 2026-05-08 02:34 | 26.87739 | -107.36083 | 34932 ft | 463 kts | 143° |
| 2026-05-08 02:35 | 26.83405 | -107.30735 | 34938 ft | 463 kts | 143° |
| 2026-05-08 02:35 | 26.79107 | -107.25448 | 34940 ft | 463 kts | 143° |
| 2026-05-08 02:36 | 26.74762 | -107.20112 | 34936 ft | 463 kts | 143° |
| 2026-05-08 02:36 | 26.70428 | -107.14803 | 34944 ft | 463 kts | 143° |
| 2026-05-08 02:37 | 26.66087 | -107.09479 | 34940 ft | 464 kts | 143° |
| 2026-05-08 02:37 | 26.61742 | -107.04149 | 34917 ft | 463 kts | 143° |
| 2026-05-08 02:38 | 26.57397 | -106.98844 | 34920 ft | 462 kts | 143° |
| 2026-05-08 02:38 | 26.53045 | -106.93533 | 34913 ft | 462 kts | 143° |
| 2026-05-08 02:39 | 26.48696 | -106.88233 | 34919 ft | 462 kts | 143° |
| 2026-05-08 02:39 | 26.44380 | -106.82974 | 34897 ft | 462 kts | 142° |
| 2026-05-08 02:40 | 26.40038 | -106.77696 | 34900 ft | 462 kts | 142° |
| 2026-05-08 02:40 | 26.35695 | -106.72420 | 34906 ft | 462 kts | 142° |
| 2026-05-08 02:41 | 26.31351 | -106.67150 | 34882 ft | 460 kts | 142° |
| 2026-05-08 02:41 | 26.27009 | -106.61892 | 34947 ft | 461 kts | 142° |
| 2026-05-08 02:42 | 26.24843 | -106.59275 | 35083 ft | 460 kts | 142° |
| 2026-05-08 02:42 | 26.22675 | -106.56653 | 35130 ft | 459 kts | 142° |
| 2026-05-08 02:42 | 26.18347 | -106.51416 | 35127 ft | 459 kts | 142° |
| 2026-05-08 02:43 | 26.14018 | -106.46190 | 35139 ft | 459 kts | 142° |
| 2026-05-08 02:43 | 26.09671 | -106.40960 | 35134 ft | 460 kts | 142° |
| 2026-05-08 02:44 | 26.05330 | -106.35741 | 35136 ft | 460 kts | 142° |
| 2026-05-08 02:44 | 26.00987 | -106.30509 | 35112 ft | 461 kts | 142° |
| 2026-05-08 02:45 | 25.96637 | -106.25281 | 35122 ft | 462 kts | 142° |
| 2026-05-08 02:45 | 25.92270 | -106.20051 | 35100 ft | 462 kts | 142° |
| 2026-05-08 02:46 | 25.87890 | -106.14798 | 35108 ft | 463 kts | 142° |
| 2026-05-08 02:46 | 25.83522 | -106.09558 | 35117 ft | 462 kts | 142° |
| 2026-05-08 02:47 | 25.79149 | -106.04339 | 35101 ft | 462 kts | 142° |
| 2026-05-08 02:47 | 25.74762 | -105.99122 | 35116 ft | 462 kts | 142° |
| 2026-05-08 02:48 | 25.70381 | -105.93896 | 35110 ft | 463 kts | 142° |
| 2026-05-08 02:48 | 25.65981 | -105.88659 | 35050 ft | 464 kts | 142° |
| 2026-05-08 02:49 | 25.62324 | -105.84312 | 35066 ft | 464 kts | 142° |
| 2026-05-08 02:49 | 25.57921 | -105.79064 | 35079 ft | 465 kts | 141° |
| 2026-05-08 02:50 | 25.53521 | -105.73810 | 35055 ft | 465 kts | 141° |
| 2026-05-08 02:50 | 25.49122 | -105.68587 | 35069 ft | 465 kts | 141° |
| 2026-05-08 02:51 | 25.44713 | -105.63364 | 35052 ft | 465 kts | 142° |
| 2026-05-08 02:51 | 25.40296 | -105.58128 | 35028 ft | 465 kts | 141° |
| 2026-05-08 02:52 | 25.35885 | -105.52897 | 35037 ft | 465 kts | 141° |
| 2026-05-08 02:52 | 25.31471 | -105.47684 | 35025 ft | 465 kts | 141° |
| 2026-05-08 02:53 | 25.27037 | -105.42460 | 35031 ft | 464 kts | 141° |
| 2026-05-08 02:53 | 25.22636 | -105.37253 | 35034 ft | 465 kts | 141° |
| 2026-05-08 02:54 | 25.18222 | -105.32043 | 35023 ft | 464 kts | 141° |
| 2026-05-08 02:54 | 25.13797 | -105.26834 | 35025 ft | 466 kts | 141° |
| 2026-05-08 02:55 | 25.07161 | -105.19040 | 35035 ft | 466 kts | 141° |
| 2026-05-08 02:56 | 25.02722 | -105.13824 | 35038 ft | 467 kts | 141° |
| 2026-05-08 02:56 | 24.98285 | -105.08622 | 35053 ft | 467 kts | 141° |
| 2026-05-08 02:57 | 24.93833 | -105.03404 | 35042 ft | 467 kts | 141° |
| 2026-05-08 02:57 | 24.89380 | -104.98200 | 35044 ft | 467 kts | 141° |
| 2026-05-08 02:58 | 24.84913 | -104.92991 | 35034 ft | 466 kts | 141° |
| 2026-05-08 02:58 | 24.80462 | -104.87802 | 35030 ft | 466 kts | 140° |
| 2026-05-08 02:59 | 24.76029 | -104.82618 | 35047 ft | 465 kts | 140° |
| 2026-05-08 02:59 | 24.71585 | -104.77435 | 35050 ft | 465 kts | 141° |
| 2026-05-08 03:00 | 24.67134 | -104.72261 | 35042 ft | 465 kts | 141° |
| 2026-05-08 03:00 | 24.62685 | -104.67100 | 35060 ft | 465 kts | 141° |
| 2026-05-08 03:01 | 24.58243 | -104.61948 | 35019 ft | 464 kts | 140° |
| 2026-05-08 03:01 | 24.53798 | -104.56801 | 35036 ft | 464 kts | 140° |
| 2026-05-08 03:02 | 24.49377 | -104.51684 | 35035 ft | 464 kts | 140° |
| 2026-05-08 03:02 | 24.44935 | -104.46543 | 35045 ft | 464 kts | 140° |
| 2026-05-08 03:03 | 24.40488 | -104.41401 | 35075 ft | 464 kts | 140° |
| 2026-05-08 03:03 | 24.36046 | -104.36268 | 35095 ft | 464 kts | 140° |
| 2026-05-08 03:04 | 24.31597 | -104.31151 | 35075 ft | 464 kts | 140° |
| 2026-05-08 03:04 | 24.27154 | -104.26031 | 35073 ft | 463 kts | 140° |
| 2026-05-08 03:05 | 24.22709 | -104.20918 | 35058 ft | 463 kts | 140° |
| 2026-05-08 03:05 | 24.18267 | -104.15806 | 35026 ft | 464 kts | 140° |
| 2026-05-08 03:06 | 24.13818 | -104.10692 | 35013 ft | 464 kts | 140° |
| 2026-05-08 03:06 | 24.09361 | -104.05582 | 35022 ft | 464 kts | 140° |
| 2026-05-08 03:07 | 24.04931 | -104.00512 | 35025 ft | 464 kts | 140° |
| 2026-05-08 03:07 | 24.00471 | -103.95412 | 35025 ft | 464 kts | 140° |
| 2026-05-08 03:08 | 23.96013 | -103.90318 | 35037 ft | 463 kts | 140° |
| 2026-05-08 03:08 | 23.91551 | -103.85224 | 35044 ft | 464 kts | 140° |
| 2026-05-08 03:09 | 23.87085 | -103.80136 | 35049 ft | 464 kts | 140° |
| 2026-05-08 03:09 | 23.82615 | -103.75049 | 35045 ft | 464 kts | 140° |
| 2026-05-08 03:10 | 23.78149 | -103.69952 | 35047 ft | 464 kts | 140° |
| 2026-05-08 03:10 | 23.73689 | -103.64862 | 35043 ft | 464 kts | 140° |
| 2026-05-08 03:11 | 23.69220 | -103.59785 | 35040 ft | 464 kts | 140° |
| 2026-05-08 03:11 | 23.64735 | -103.54715 | 35056 ft | 464 kts | 140° |
| 2026-05-08 03:12 | 23.60257 | -103.49644 | 35059 ft | 464 kts | 140° |
| 2026-05-08 03:12 | 23.55810 | -103.44609 | 35050 ft | 464 kts | 140° |
| 2026-05-08 03:13 | 23.51327 | -103.39543 | 35061 ft | 463 kts | 141° |
| 2026-05-08 03:13 | 23.46849 | -103.34497 | 35031 ft | 463 kts | 140° |
| 2026-05-08 03:14 | 23.42374 | -103.29456 | 35048 ft | 463 kts | 140° |
| 2026-05-08 03:14 | 23.37920 | -103.24398 | 35051 ft | 463 kts | 140° |
| 2026-05-08 03:15 | 23.33482 | -103.19323 | 35036 ft | 463 kts | 140° |
| 2026-05-08 03:15 | 23.29045 | -103.14261 | 35048 ft | 462 kts | 140° |
| 2026-05-08 03:16 | 23.24593 | -103.09214 | 35050 ft | 462 kts | 140° |
| 2026-05-08 03:16 | 23.20141 | -103.04179 | 35017 ft | 462 kts | 140° |
| 2026-05-08 03:17 | 23.15692 | -102.99131 | 35032 ft | 462 kts | 140° |
| 2026-05-08 03:17 | 23.11242 | -102.94090 | 35072 ft | 462 kts | 140° |
| 2026-05-08 03:18 | 23.06786 | -102.89061 | 35132 ft | 462 kts | 140° |
| 2026-05-08 03:18 | 23.02333 | -102.84032 | 35200 ft | 462 kts | 140° |
| 2026-05-08 03:19 | 22.97880 | -102.79009 | 35264 ft | 462 kts | 140° |
| 2026-05-08 03:19 | 22.93424 | -102.73984 | 35298 ft | 462 kts | 140° |
| 2026-05-08 03:20 | 22.88968 | -102.68966 | 35294 ft | 461 kts | 140° |
| 2026-05-08 03:20 | 22.84521 | -102.63974 | 35303 ft | 460 kts | 140° |
| 2026-05-08 03:21 | 22.80075 | -102.58982 | 35262 ft | 459 kts | 140° |
| 2026-05-08 03:21 | 22.75672 | -102.54032 | 35196 ft | 459 kts | 140° |
| 2026-05-08 03:22 | 22.71241 | -102.49047 | 35132 ft | 459 kts | 140° |
| 2026-05-08 03:22 | 22.66806 | -102.44080 | 35054 ft | 459 kts | 140° |
| 2026-05-08 03:23 | 22.62369 | -102.39117 | 35007 ft | 458 kts | 140° |
| 2026-05-08 03:23 | 22.57933 | -102.34163 | 35010 ft | 458 kts | 140° |
| 2026-05-08 03:24 | 22.53498 | -102.29213 | 34992 ft | 458 kts | 140° |
| 2026-05-08 03:24 | 22.49059 | -102.24256 | 34991 ft | 458 kts | 140° |
| 2026-05-08 03:25 | 22.44623 | -102.19305 | 34993 ft | 458 kts | 140° |
| 2026-05-08 03:25 | 22.40184 | -102.14356 | 34988 ft | 458 kts | 140° |
| 2026-05-08 03:26 | 22.35738 | -102.09420 | 34982 ft | 458 kts | 140° |
| 2026-05-08 03:26 | 22.31297 | -102.04486 | 34971 ft | 458 kts | 140° |
| 2026-05-08 03:27 | 22.26857 | -101.99550 | 34982 ft | 458 kts | 140° |
| 2026-05-08 03:27 | 22.22455 | -101.94657 | 34980 ft | 457 kts | 140° |
| 2026-05-08 03:28 | 22.17984 | -101.89708 | 34981 ft | 457 kts | 140° |
| 2026-05-08 03:28 | 22.13581 | -101.84824 | 34987 ft | 457 kts | 140° |
| 2026-05-08 03:29 | 22.09135 | -101.79909 | 34985 ft | 457 kts | 140° |
| 2026-05-08 03:29 | 22.04682 | -101.75003 | 34986 ft | 457 kts | 140° |
| 2026-05-08 03:30 | 21.98023 | -101.67652 | 34971 ft | 456 kts | 139° |
| 2026-05-08 03:31 | 21.89155 | -101.57869 | 34984 ft | 456 kts | 139° |
| 2026-05-08 03:32 | 21.82483 | -101.50570 | 34985 ft | 456 kts | 139° |
| 2026-05-08 03:32 | 21.78054 | -101.45680 | 34988 ft | 456 kts | 139° |
| 2026-05-08 03:33 | 21.73621 | -101.40793 | 34994 ft | 456 kts | 139° |
| 2026-05-08 03:33 | 21.69183 | -101.35920 | 34985 ft | 456 kts | 139° |
| 2026-05-08 03:34 | 21.64740 | -101.31053 | 35002 ft | 455 kts | 139° |
| 2026-05-08 03:34 | 21.61051 | -101.27016 | 34997 ft | 455 kts | 139° |
| 2026-05-08 03:35 | 21.56619 | -101.22169 | 34999 ft | 455 kts | 139° |
| 2026-05-08 03:35 | 21.52182 | -101.17322 | 35005 ft | 455 kts | 139° |
| 2026-05-08 03:36 | 21.47149 | -101.11824 | 35008 ft | 455 kts | 139° |
| 2026-05-08 03:36 | 21.42740 | -101.07013 | 35005 ft | 455 kts | 139° |
| 2026-05-08 03:37 | 21.38300 | -101.02169 | 35001 ft | 455 kts | 139° |
| 2026-05-08 03:37 | 21.33858 | -100.97332 | 35003 ft | 455 kts | 139° |
| 2026-05-08 03:38 | 21.29409 | -100.92495 | 35010 ft | 455 kts | 139° |
| 2026-05-08 03:38 | 21.24956 | -100.87662 | 35011 ft | 456 kts | 139° |
| 2026-05-08 03:39 | 21.20504 | -100.82828 | 35008 ft | 456 kts | 139° |
| 2026-05-08 03:39 | 21.16043 | -100.78000 | 35020 ft | 456 kts | 139° |
| 2026-05-08 03:40 | 21.11587 | -100.73167 | 35020 ft | 456 kts | 139° |
| 2026-05-08 03:40 | 21.07133 | -100.68332 | 35027 ft | 456 kts | 139° |
| 2026-05-08 03:41 | 21.02674 | -100.63511 | 35023 ft | 456 kts | 139° |
| 2026-05-08 03:41 | 20.98213 | -100.58692 | 35026 ft | 456 kts | 139° |
| 2026-05-08 03:42 | 20.93750 | -100.53868 | 35035 ft | 456 kts | 139° |
| 2026-05-08 03:42 | 20.89286 | -100.49051 | 35040 ft | 456 kts | 139° |
| 2026-05-08 03:43 | 20.84820 | -100.44236 | 35044 ft | 456 kts | 139° |
| 2026-05-08 03:43 | 20.80347 | -100.39426 | 35047 ft | 456 kts | 139° |
| 2026-05-08 03:44 | 20.76632 | -100.35432 | 35048 ft | 456 kts | 139° |
| 2026-05-08 03:44 | 20.71437 | -100.29843 | 34958 ft | 456 kts | 139° |
| 2026-05-08 03:44 | 20.69189 | -100.27426 | 34319 ft | 459 kts | 138° |
| 2026-05-08 03:45 | 20.67673 | -100.25793 | 33991 ft | 457 kts | 138° |
| 2026-05-08 03:45 | 20.65472 | -100.23423 | 33494 ft | 454 kts | 138° |
| 2026-05-08 03:45 | 20.63256 | -100.21045 | 32969 ft | 451 kts | 138° |
| 2026-05-08 03:45 | 20.61047 | -100.18683 | 32464 ft | 448 kts | 138° |
| 2026-05-08 03:46 | 20.58850 | -100.16338 | 31942 ft | 445 kts | 138° |
| 2026-05-08 03:46 | 20.56665 | -100.14002 | 31428 ft | 443 kts | 138° |
| 2026-05-08 03:46 | 20.54497 | -100.11680 | 30908 ft | 440 kts | 138° |
| 2026-05-08 03:46 | 20.52343 | -100.09371 | 30367 ft | 438 kts | 137° |
| 2026-05-08 03:47 | 20.50201 | -100.07072 | 29776 ft | 435 kts | 137° |
| 2026-05-08 03:47 | 20.48082 | -100.04798 | 29264 ft | 430 kts | 137° |
| 2026-05-08 03:47 | 20.45983 | -100.02551 | 28748 ft | 425 kts | 137° |
| 2026-05-08 03:47 | 20.43908 | -100.00335 | 28251 ft | 421 kts | 137° |
| 2026-05-08 03:48 | 20.41852 | -99.98137 | 27767 ft | 416 kts | 137° |
| 2026-05-08 03:48 | 20.39814 | -99.95962 | 27288 ft | 412 kts | 137° |
| 2026-05-08 03:48 | 20.37796 | -99.93807 | 26791 ft | 408 kts | 137° |
| 2026-05-08 03:48 | 20.35799 | -99.91674 | 26362 ft | 405 kts | 137° |
| 2026-05-08 03:49 | 20.33818 | -99.89559 | 25940 ft | 402 kts | 137° |
| 2026-05-08 03:49 | 20.31851 | -99.87462 | 25535 ft | 399 kts | 137° |
| 2026-05-08 03:49 | 20.29895 | -99.85372 | 25107 ft | 397 kts | 137° |
| 2026-05-08 03:49 | 20.27950 | -99.83292 | 24679 ft | 395 kts | 137° |
| 2026-05-08 03:50 | 20.26010 | -99.81228 | 24259 ft | 393 kts | 137° |
| 2026-05-08 03:50 | 20.24075 | -99.79183 | 23846 ft | 391 kts | 137° |
| 2026-05-08 03:50 | 20.22145 | -99.77149 | 23389 ft | 389 kts | 137° |
| 2026-05-08 03:50 | 20.20226 | -99.75133 | 22898 ft | 387 kts | 137° |
| 2026-05-08 03:51 | 20.18314 | -99.73132 | 22437 ft | 384 kts | 137° |
| 2026-05-08 03:51 | 20.16408 | -99.71151 | 21959 ft | 382 kts | 137° |
| 2026-05-08 03:51 | 20.14515 | -99.69192 | 21481 ft | 375 kts | 137° |
| 2026-05-08 03:51 | 20.12669 | -99.67286 | 21018 ft | 366 kts | 137° |
| 2026-05-08 03:52 | 20.10849 | -99.65416 | 20565 ft | 362 kts | 137° |
| 2026-05-08 03:52 | 20.09040 | -99.63563 | 20121 ft | 359 kts | 137° |
| 2026-05-08 03:52 | 20.07239 | -99.61726 | 19695 ft | 357 kts | 137° |
| 2026-05-08 03:52 | 20.05447 | -99.59907 | 19261 ft | 355 kts | 137° |
| 2026-05-08 03:53 | 20.03666 | -99.58105 | 18833 ft | 353 kts | 137° |
| 2026-05-08 03:53 | 20.01885 | -99.56310 | 18415 ft | 353 kts | 137° |
| 2026-05-08 03:53 | 20.00105 | -99.54521 | 17934 ft | 351 kts | 137° |
| 2026-05-08 03:53 | 19.98332 | -99.52745 | 17459 ft | 350 kts | 137° |
| 2026-05-08 03:54 | 19.96566 | -99.50980 | 16986 ft | 348 kts | 137° |
| 2026-05-08 03:54 | 19.94800 | -99.49220 | 16531 ft | 347 kts | 136° |
| 2026-05-08 03:54 | 19.93039 | -99.47471 | 16077 ft | 346 kts | 136° |
| 2026-05-08 03:54 | 19.91279 | -99.45731 | 15621 ft | 345 kts | 137° |
| 2026-05-08 03:55 | 19.89551 | -99.44013 | 15190 ft | 344 kts | 137° |
| 2026-05-08 03:55 | 19.87811 | -99.42278 | 14756 ft | 343 kts | 137° |
| 2026-05-08 03:55 | 19.86061 | -99.40518 | 14311 ft | 338 kts | 137° |
| 2026-05-08 03:55 | 19.84407 | -99.38839 | 13882 ft | 328 kts | 137° |
| 2026-05-08 03:56 | 19.82770 | -99.37173 | 13415 ft | 325 kts | 137° |
| 2026-05-08 03:56 | 19.81148 | -99.35524 | 12964 ft | 322 kts | 136° |
| 2026-05-08 03:56 | 19.79529 | -99.33890 | 12517 ft | 321 kts | 136° |
| 2026-05-08 03:56 | 19.77904 | -99.32264 | 12078 ft | 321 kts | 136° |
| 2026-05-08 03:57 | 19.76283 | -99.30652 | 11882 ft | 320 kts | 136° |
| 2026-05-08 03:57 | 19.74784 | -99.28909 | 11886 ft | 320 kts | 121° |
| 2026-05-08 03:57 | 19.73939 | -99.26729 | 11914 ft | 320 kts | 105° |
| 2026-05-08 03:57 | 19.73374 | -99.24442 | 11932 ft | 321 kts | 104° |
| 2026-05-08 03:58 | 19.72835 | -99.22142 | 11950 ft | 320 kts | 104° |
| 2026-05-08 03:58 | 19.72301 | -99.19847 | 11973 ft | 321 kts | 103° |
| 2026-05-08 03:58 | 19.71769 | -99.17550 | 11992 ft | 321 kts | 103° |
| 2026-05-08 03:58 | 19.71237 | -99.15249 | 11955 ft | 322 kts | 103° |
| 2026-05-08 03:59 | 19.70734 | -99.12945 | 11863 ft | 318 kts | 103° |
| 2026-05-08 03:59 | 19.70257 | -99.10738 | 11754 ft | 297 kts | 102° |
| 2026-05-08 03:59 | 19.69808 | -99.08674 | 11646 ft | 278 kts | 103° |
| 2026-05-08 03:59 | 19.69387 | -99.06718 | 11530 ft | 269 kts | 103° |
| 2026-05-08 04:00 | 19.68974 | -99.04799 | 11422 ft | 267 kts | 102° |
| 2026-05-08 04:00 | 19.68559 | -99.02885 | 11133 ft | 266 kts | 102° |
| 2026-05-08 04:00 | 19.68142 | -99.00973 | 11021 ft | 265 kts | 102° |
| 2026-05-08 04:00 | 19.67730 | -98.99088 | 10923 ft | 266 kts | 102° |
| 2026-05-08 04:01 | 19.67312 | -98.97182 | 10878 ft | 265 kts | 102° |
| 2026-05-08 04:01 | 19.66895 | -98.95276 | 10879 ft | 265 kts | 102° |
| 2026-05-08 04:01 | 19.66477 | -98.93367 | 10875 ft | 265 kts | 102° |
| 2026-05-08 04:01 | 19.66054 | -98.91463 | 10873 ft | 265 kts | 103° |
| 2026-05-08 04:02 | 19.65611 | -98.89562 | 10857 ft | 266 kts | 103° |
| 2026-05-08 04:02 | 19.65165 | -98.87659 | 10851 ft | 266 kts | 103° |
| 2026-05-08 04:02 | 19.64719 | -98.85761 | 10838 ft | 263 kts | 103° |
| 2026-05-08 04:02 | 19.64292 | -98.83954 | 10847 ft | 239 kts | 103° |
| 2026-05-08 04:03 | 19.63910 | -98.82355 | 10825 ft | 212 kts | 103° |
| 2026-05-08 04:03 | 19.63223 | -98.79500 | 10798 ft | 195 kts | 106° |
| 2026-05-08 04:03 | 19.62547 | -98.78273 | 10799 ft | 195 kts | 138° |
| 2026-05-08 04:04 | 19.61324 | -98.77694 | 10799 ft | 197 kts | 176° |
| 2026-05-08 04:04 | 19.60020 | -98.78035 | 10815 ft | 197 kts | 215° |
| 2026-05-08 04:04 | 19.59150 | -98.79137 | 10838 ft | 197 kts | 239° |
| 2026-05-08 04:04 | 19.58458 | -98.80397 | 10845 ft | 198 kts | 240° |
| 2026-05-08 04:05 | 19.57764 | -98.81654 | 10859 ft | 197 kts | 240° |
| 2026-05-08 04:05 | 19.57068 | -98.82904 | 10876 ft | 197 kts | 240° |
| 2026-05-08 04:05 | 19.56372 | -98.84152 | 10889 ft | 197 kts | 240° |
| 2026-05-08 04:05 | 19.55674 | -98.85401 | 10898 ft | 197 kts | 240° |
| 2026-05-08 04:06 | 19.54986 | -98.86633 | 10917 ft | 196 kts | 240° |
| 2026-05-08 04:06 | 19.54288 | -98.87882 | 10785 ft | 197 kts | 240° |
| 2026-05-08 04:06 | 19.53594 | -98.89124 | 10599 ft | 195 kts | 240° |
| 2026-05-08 04:06 | 19.52903 | -98.90360 | 10389 ft | 194 kts | 240° |
| 2026-05-08 04:07 | 19.52216 | -98.91590 | 10172 ft | 194 kts | 240° |
| 2026-05-08 04:07 | 19.51529 | -98.92818 | 9931 ft | 193 kts | 240° |
| 2026-05-08 04:07 | 19.50846 | -98.94041 | 9724 ft | 192 kts | 240° |
| 2026-05-08 04:07 | 19.50162 | -98.95263 | 9572 ft | 193 kts | 241° |
| 2026-05-08 04:08 | 19.49476 | -98.96488 | 9415 ft | 194 kts | 241° |
| 2026-05-08 04:08 | 19.48814 | -98.97736 | 9228 ft | 194 kts | 247° |
| 2026-05-08 04:08 | 19.48285 | -98.98990 | 9014 ft | 179 kts | 250° |
| 2026-05-08 04:08 | 19.47810 | -99.00182 | 8750 ft | 173 kts | 246° |
| 2026-05-08 04:09 | 19.47202 | -99.01274 | 8507 ft | 171 kts | 239° |
| 2026-05-08 04:09 | 19.46523 | -99.02295 | 8185 ft | 168 kts | 239° |
| 2026-05-08 04:09 | 19.45946 | -99.03352 | 7947 ft | 165 kts | 244° |
| 2026-05-08 04:09 | 19.45388 | -99.04405 | 7653 ft | 162 kts | 241° |
| 2026-05-08 04:10 | 19.44805 | -99.05419 | 7433 ft | 160 kts | 241° |
| 2026-05-08 04:10 | 19.44231 | -99.06424 | 7307 ft | 156 kts | 243° |
| 2026-05-08 04:10 | 19.43788 | -99.07217 | 7303 ft | 83 kts | 237° |
| 2026-05-08 04:10 | 19.43568 | -99.07613 | 7304 ft | 58 kts | 238° |
| 2026-05-08 04:11 | 19.43401 | -99.07847 | 7304 ft | 27 kts | 193° |
| 2026-05-08 04:11 | 19.43300 | -99.07903 | 7303 ft | 13 kts | 233° |